createdAt,value
2022-11-16T00:00:18.396Z,11.7
2022-11-16T00:06:06.375Z,11.7
2022-11-16T00:11:54.754Z,11.7
2022-11-16T00:17:44.890Z,11.7
2022-11-16T00:23:35.455Z,11.7
2022-11-16T00:29:25.019Z,11.7
2022-11-16T00:35:15.350Z,11.6
2022-11-16T00:41:05.112Z,11.6
2022-11-16T00:46:55.253Z,11.6
2022-11-16T00:52:47.272Z,11.6
2022-11-16T00:58:37.459Z,11.6
2022-11-16T01:04:29.699Z,11.6
2022-11-16T01:10:21.235Z,11.6
2022-11-16T01:16:12.278Z,11.7
2022-11-16T01:22:02.883Z,11.7
2022-11-16T01:27:55.326Z,11.7
2022-11-16T01:33:44.976Z,11.6
2022-11-16T01:40:41.412Z,11.6
2022-11-16T01:46:30.168Z,11.6
2022-11-16T01:52:20.887Z,11.6
2022-11-16T01:58:10.767Z,11.6
2022-11-16T02:04:02.232Z,11.6
2022-11-16T02:09:52.925Z,11.6
2022-11-16T02:15:41.082Z,11.6
2022-11-16T02:21:31.918Z,11.5
2022-11-16T02:27:22.308Z,11.6
2022-11-16T02:33:11.606Z,11.5
2022-11-16T02:39:06.998Z,11.6
2022-11-16T02:44:56.268Z,11.5
2022-11-16T02:50:46.544Z,11.5
2022-11-16T02:56:38.041Z,11.4
2022-11-16T03:02:29.307Z,11.4
2022-11-16T03:08:19.886Z,11.4
2022-11-16T03:14:11.895Z,11.4
2022-11-16T03:20:02.009Z,11.5
2022-11-16T03:25:51.709Z,11.5
2022-11-16T03:31:39.914Z,11.5
2022-11-16T03:37:29.747Z,11.5
2022-11-16T03:43:18.828Z,11.5
2022-11-16T03:49:09.817Z,11.5
2022-11-16T03:55:00.227Z,11.6
2022-11-16T04:00:50.657Z,11.5
2022-11-16T04:06:40.480Z,11.5
2022-11-16T04:12:30.364Z,11.5
2022-11-16T04:18:22.398Z,11.5
2022-11-16T04:24:42.641Z,11.4
2022-11-16T04:31:02.094Z,11.5
2022-11-16T04:37:06.955Z,11.4
2022-11-16T04:43:21.162Z,11.5
2022-11-16T04:49:27.876Z,11.4
2022-11-16T04:56:00.935Z,11.4
2022-11-16T05:02:24.407Z,11.5
2022-11-16T05:08:36.128Z,11.4
2022-11-16T05:21:39.584Z,11.4
2022-11-16T05:27:50.448Z,11.5
2022-11-16T05:39:47.033Z,11.5
2022-11-16T05:45:50.940Z,11.4
2022-11-16T05:51:42.997Z,11.4
2022-11-16T06:04:01.568Z,11.4
2022-11-16T06:09:53.771Z,11.4
2022-11-16T06:15:53.908Z,11.3
2022-11-16T06:21:48.559Z,11.1
2022-11-16T06:27:40.964Z,11.2
2022-11-16T06:33:34.225Z,11.1
2022-11-16T06:39:32.577Z,11.2
2022-11-16T06:45:42.962Z,11
2022-11-16T06:51:37.766Z,10.9
2022-11-16T06:57:33.075Z,10.9
2022-11-16T07:03:38.362Z,10.8
2022-11-16T07:09:35.016Z,10.6
2022-11-16T07:40:15.516Z,10.4
2022-11-16T08:05:05.227Z,10.2
2022-11-16T08:11:13.070Z,10.3
2022-11-16T08:41:44.537Z,10.4
2022-11-16T09:00:34.044Z,10.7
2022-11-16T09:19:30.516Z,10.7
2022-11-16T09:32:08.433Z,10.8
2022-11-16T09:38:24.114Z,10.9
2022-11-16T09:51:00.620Z,11
2022-11-16T09:57:12.351Z,11.1
2022-11-16T10:09:25.547Z,11.2
2022-11-16T10:21:39.238Z,11.4
2022-11-16T10:27:33.694Z,11.4
2022-11-16T10:33:32.298Z,11.5
2022-11-16T10:39:24.540Z,11.6
2022-11-16T10:45:17.778Z,11.7
2022-11-16T10:51:09.137Z,11.8
2022-11-16T10:57:04.325Z,11.7
2022-11-16T11:02:56.498Z,11.7
2022-11-16T11:08:46.956Z,11.8
2022-11-16T11:14:41.338Z,12
2022-11-16T11:20:31.843Z,12.1
2022-11-16T11:26:34.860Z,12.3
2022-11-16T11:32:26.963Z,12.3
2022-11-16T11:38:17.298Z,12.5
2022-11-16T11:44:10.492Z,12.4
2022-11-16T11:50:02.405Z,12.5
2022-11-16T11:55:52.258Z,12.6
2022-11-16T12:01:42.863Z,12.7
2022-11-16T12:07:34.043Z,12.9
2022-11-16T12:13:25.026Z,13.1
2022-11-16T12:19:15.737Z,13.1
2022-11-16T12:25:09.191Z,13
2022-11-16T12:31:01.874Z,13
2022-11-16T12:36:51.994Z,13.1
2022-11-16T12:42:43.628Z,13.1
2022-11-16T12:48:34.843Z,13
2022-11-16T12:54:28.519Z,13.1
2022-11-16T13:00:19.005Z,13
2022-11-16T13:06:14.135Z,12.9
2022-11-16T13:12:10.315Z,13
2022-11-16T13:18:04.273Z,13
2022-11-16T13:24:02.272Z,12.9
2022-11-16T13:30:06.272Z,12.8
2022-11-16T13:42:08.181Z,12.7
2022-11-16T13:48:13.187Z,12.7
2022-11-16T13:54:43.721Z,12.7
2022-11-16T14:07:14.964Z,12.6
2022-11-16T14:13:15.844Z,12.6
2022-11-16T14:25:23.888Z,12.6
2022-11-16T14:31:23.941Z,12.7
2022-11-16T14:37:40.259Z,12.6
2022-11-16T14:43:44.944Z,12.6
2022-11-16T14:49:40.979Z,12.7
2022-11-16T14:55:34.707Z,12.6
2022-11-16T15:01:26.708Z,12.5
2022-11-16T15:07:32.214Z,12.4
2022-11-16T15:55:49.940Z,11.7
2022-11-16T16:08:24.906Z,11.7
2022-11-16T18:01:21.973Z,10.5
2022-11-16T18:31:27.348Z,10.5
2022-11-16T18:49:26.888Z,10.4
2022-11-16T18:56:42.186Z,10.4
2022-11-16T19:02:30.225Z,10.3
2022-11-16T19:08:21.307Z,10.3
2022-11-16T19:14:09.348Z,10.3
2022-11-16T19:19:57.549Z,10.3
2022-11-16T19:25:48.569Z,10.3
2022-11-16T19:31:41.059Z,10.4
2022-11-16T19:37:31.964Z,10.4
2022-11-16T19:43:22.530Z,10.4
2022-11-16T19:49:17.119Z,10.5
2022-11-16T19:55:09.980Z,10.5
2022-11-16T20:00:59.446Z,10.4
2022-11-16T20:06:49.971Z,10.5
2022-11-16T20:12:40.240Z,10.3
2022-11-16T20:18:30.478Z,10.3
2022-11-16T20:24:20.705Z,10.4
2022-11-16T20:30:11.242Z,10.3
2022-11-16T20:36:00.281Z,10.4
2022-11-16T20:41:49.177Z,10.4
2022-11-16T20:47:40.766Z,10.4
2022-11-16T20:53:30.342Z,10.3
2022-11-16T20:59:24.342Z,10.4
2022-11-16T21:05:15.734Z,10.4
2022-11-16T21:11:05.897Z,10.4
2022-11-16T21:16:55.938Z,10.4
2022-11-16T21:22:46.446Z,10.4
2022-11-16T21:28:35.948Z,10.4
2022-11-16T21:34:25.770Z,10.5
2022-11-16T21:40:22.127Z,10.7
2022-11-16T21:46:14.579Z,10.7
2022-11-16T21:52:04.769Z,10.8
2022-11-16T21:57:53.346Z,10.9
2022-11-16T22:03:42.271Z,10.8
2022-11-16T22:09:33.319Z,10.9
2022-11-16T22:15:26.952Z,10.9
2022-11-16T22:21:17.569Z,10.9
2022-11-16T22:27:09.539Z,10.9
2022-11-16T22:32:58.994Z,10.9
2022-11-16T22:38:49.884Z,10.9
2022-11-16T22:44:39.994Z,10.9
2022-11-16T22:50:30.480Z,10.9
2022-11-16T22:56:24.447Z,10.9
2022-11-16T23:02:17.294Z,10.9
2022-11-16T23:08:07.940Z,10.9
2022-11-16T23:14:01.069Z,10.9
2022-11-16T23:19:51.703Z,11
2022-11-16T23:25:40.291Z,11
2022-11-16T23:31:29.483Z,10.9
2022-11-16T23:37:18.317Z,11
2022-11-16T23:43:07.843Z,11
2022-11-16T23:48:58.320Z,11
2022-11-16T23:54:50.471Z,11
